Time;durP1;ratioP1;P1;durP2;ratioP2;P2;SDS_P1;SDS_P2;PMS_P1;PMS_P2;Temp;Humidity;BMP_temperature;BMP_pressure;BME280_temperature;BME280_humidity;BME280_pressure;Samples;Min_cycle;Max_cycle;Signal;HPM_P1;HPM_P2
2022/07/19 06:01:30;;;;;;;9.20;4.80;;;20.40;99.90;;;;;;4975936;28;20744;-93
2022/07/19 06:03:58;;;;;;;6.17;4.90;;;20.30;99.90;;;;;;4977608;28;20491;-92
2022/07/19 06:06:28;;;;;;;5.37;4.80;;;20.40;99.90;;;;;;4978999;28;20467;-93
2022/07/19 06:09:11;;;;;;;4.30;4.00;;;20.70;99.90;;;;;;4968346;28;20807;-94
2022/07/19 06:11:38;;;;;;;5.00;4.70;;;20.70;99.90;;;;;;4949894;28;20463;-94
2022/07/19 06:14:06;;;;;;;4.50;4.10;;;21.30;99.90;;;;;;4953081;28;20467;-93
2022/07/19 06:16:32;;;;;;;5.10;4.80;;;21.10;99.90;;;;;;4953759;28;20469;-93
2022/07/19 06:18:58;;;;;;;4.97;4.57;;;20.80;99.90;;;;;;4995182;28;20532;-94
2022/07/19 06:21:23;;;;;;;4.10;3.80;;;21.20;99.90;;;;;;4974755;28;20271;-92
2022/07/19 06:23:49;;;;;;;4.17;3.77;;;21.30;99.90;;;;;;4961006;28;20882;-93
2022/07/19 06:26:15;;;;;;;4.33;4.03;;;21.50;99.90;;;;;;4953299;28;20214;-91
2022/07/19 06:28:41;;;;;;;4.30;4.00;;;21.50;99.90;;;;;;4979246;28;20659;-90
2022/07/19 06:31:10;;;;;;;3.57;3.37;;;22.00;99.90;;;;;;4958077;28;20574;-91
2022/07/19 06:33:39;;;;;;;4.53;4.23;;;21.40;99.90;;;;;;4968963;28;20182;-91
2022/07/19 06:36:05;;;;;;;7.80;4.40;;;21.80;99.90;;;;;;4966130;28;20488;-92
2022/07/19 06:38:31;;;;;;;6.27;4.90;;;21.80;99.90;;;;;;4965406;28;20468;-91
2022/07/19 06:40:56;;;;;;;7.23;4.60;;;21.90;99.90;;;;;;4951067;28;20244;-92
2022/07/19 06:43:33;;;;;;;4.50;4.00;;;22.20;99.90;;;;;;4949504;28;20208;-94
2022/07/19 06:45:59;;;;;;;4.07;3.77;;;22.40;99.90;;;;;;4951220;28;20205;-91
2022/07/19 06:48:25;;;;;;;6.47;4.50;;;23.10;99.90;;;;;;4954774;28;20443;-90
2022/07/19 06:50:50;;;;;;;4.57;4.17;;;22.70;99.90;;;;;;4959262;28;20214;-92
2022/07/19 06:53:16;;;;;;;3.73;3.50;;;22.50;99.90;;;;;;4970673;28;20559;-93
2022/07/19 06:55:42;;;;;;;4.70;4.20;;;23.10;99.90;;;;;;4957982;28;20197;-92
2022/07/19 06:58:07;;;;;;;4.23;3.93;;;22.60;99.90;;;;;;4967095;28;20801;-93
2022/07/19 07:00:35;;;;;;;3.80;3.50;;;22.80;99.90;;;;;;4961899;28;20197;-94
2022/07/19 07:03:01;;;;;;;3.27;2.97;;;22.80;99.90;;;;;;4950815;28;20274;-90
2022/07/19 07:05:55;;;;;;;4.40;3.90;;;23.40;99.90;;;;;;4966321;28;21350;-96
2022/07/19 07:08:26;;;;;;;4.73;4.40;;;23.00;99.90;;;;;;4987621;28;20448;-92
2022/07/19 07:10:53;;;;;;;15.90;14.53;;;23.10;99.90;;;;;;4955691;28;20444;-93
2022/07/19 07:13:26;;;;;;;12.00;10.90;;;23.20;99.90;;;;;;4958113;28;20453;-92
2022/07/19 07:16:15;;;;;;;16.80;15.50;;;23.30;99.90;;;;;;4961084;28;20595;-92
2022/07/19 07:18:40;;;;;;;6.60;6.00;;;23.40;99.90;;;;;;4957339;28;20444;-95
2022/07/19 07:22:02;;;;;;;10.90;10.00;;;23.60;99.90;;;;;;4976278;28;20444;-92
2022/07/19 07:24:28;;;;;;;5.50;5.10;;;23.80;99.90;;;;;;4986199;28;20216;-94
2022/07/19 07:26:57;;;;;;;4.60;4.20;;;24.70;99.90;;;;;;4954127;28;20592;-94
2022/07/19 07:29:52;;;;;;;5.20;3.80;;;23.90;99.90;;;;;;4957103;28;20679;-95
2022/07/19 07:32:20;;;;;;;4.47;3.83;;;24.20;99.90;;;;;;4955632;28;20445;-94
2022/07/19 07:34:48;;;;;;;4.07;3.63;;;25.00;99.90;;;;;;4959848;28;20436;-96
2022/07/19 07:37:26;;;;;;;4.30;4.00;;;25.60;99.90;;;;;;4986216;28;20456;-93
2022/07/19 07:40:02;;;;;;;3.87;3.57;;;25.00;99.90;;;;;;4965256;28;20451;-96
2022/07/19 07:42:43;;;;;;;4.40;3.50;;;25.00;99.90;;;;;;4984201;28;21319;-95
2022/07/19 07:45:09;;;;;;;4.10;3.80;;;24.70;99.40;;;;;;4964161;28;20480;-94
2022/07/19 07:47:35;;;;;;;3.27;2.97;;;24.80;98.60;;;;;;4959280;28;20445;-94
2022/07/19 07:50:01;;;;;;;3.90;3.60;;;25.00;98.80;;;;;;4982009;28;20469;-94
2022/07/19 07:52:27;;;;;;;3.70;3.40;;;25.10;99.30;;;;;;4957228;28;20822;-95
2022/07/19 07:54:55;;;;;;;4.00;3.70;;;25.90;99.10;;;;;;4965364;28;20174;-95
2022/07/19 07:57:21;;;;;;;4.20;3.53;;;25.70;98.40;;;;;;4950879;28;20631;-96
2022/07/19 07:59:46;;;;;;;4.83;3.73;;;26.70;99.30;;;;;;4972458;28;20448;-94
2022/07/19 08:02:12;;;;;;;3.73;3.43;;;25.90;98.40;;;;;;4953561;28;20280;-94
2022/07/19 08:04:38;;;;;;;3.20;2.80;;;25.80;99.70;;;;;;4958983;28;20761;-94
2022/07/19 08:07:03;;;;;;;3.63;3.43;;;26.40;98.60;;;;;;4987403;28;20820;-93
2022/07/19 08:09:35;;;;;;;4.57;3.23;;;26.00;97.80;;;;;;4961109;28;20951;-96
2022/07/19 08:12:03;;;;;;;4.83;3.77;;;27.10;98.50;;;;;;4987493;28;20231;-93
2022/07/19 08:14:40;;;;;;;3.57;3.37;;;26.30;97.50;;;;;;4971401;28;20452;-96
2022/07/19 08:17:06;;;;;;;3.10;2.90;;;26.80;97.40;;;;;;4953939;28;20441;-94
2022/07/19 08:19:48;;;;;;;3.73;3.43;;;27.30;96.10;;;;;;4975843;28;20448;-96
2022/07/19 08:22:35;;;;;;;;;;;;;;;;;;;;;
2022/07/19 08:25:26;;;;;;;3.90;3.60;;;26.90;95.20;;;;;;4983613;28;20563;-96
2022/07/19 08:41:07;;;;;;;3.70;2.93;;;27.40;94.40;;;;;;5000397;28;20476;-96
2022/07/19 08:43:33;;;;;;;3.40;3.13;;;28.90;94.10;;;;;;4996844;28;20453;-96
2022/07/19 08:51:09;;;;;;;5.83;3.00;;;27.90;92.30;;;;;;5127866;23;20480;-94
2022/07/19 08:53:38;;;;;;;3.50;3.27;;;27.90;92.40;;;;;;4980216;28;20484;-92
2022/07/19 08:57:56;;;;;;;8.23;3.33;;;28.10;92.30;;;;;;4981272;28;20446;-94
2022/07/19 08:58:49;;;;;;;3.30;3.10;;;28.20;93.20;;;;;;4985755;28;20448;-93
2022/07/19 09:01:15;;;;;;;3.30;3.10;;;28.50;91.30;;;;;;4961382;28;21085;-92
2022/07/19 09:04:14;;;;;;;3.00;2.80;;;28.50;89.10;;;;;;4956488;28;20201;-92
2022/07/19 09:06:48;;;;;;;5.50;3.30;;;28.50;88.70;;;;;;4964592;28;20236;-92
2022/07/19 09:09:19;;;;;;;3.10;2.90;;;28.50;89.80;;;;;;4968724;28;20783;-94
2022/07/19 09:11:56;;;;;;;6.40;3.13;;;28.60;88.40;;;;;;4983880;28;20473;-94
2022/07/19 09:14:30;;;;;;;7.13;3.13;;;28.80;86.30;;;;;;4976816;28;20447;-94
2022/07/19 09:17:03;;;;;;;3.07;2.87;;;29.10;83.30;;;;;;4976708;28;20455;-94
2022/07/19 09:19:43;;;;;;;3.47;2.80;;;29.20;80.40;;;;;;4972100;28;20471;-94
2022/07/19 09:22:11;;;;;;;3.30;2.80;;;29.40;80.00;;;;;;4983261;28;21023;-94
2022/07/19 09:24:43;;;;;;;6.07;3.20;;;29.60;78.00;;;;;;4975835;28;20527;-93
2022/07/19 09:27:14;;;;;;;5.17;3.43;;;29.90;80.50;;;;;;4984104;28;20950;-92
2022/07/19 09:29:45;;;;;;;3.63;3.33;;;29.60;80.90;;;;;;4999518;28;20444;-93
2022/07/19 09:32:18;;;;;;;4.30;3.90;;;29.90;76.20;;;;;;4968025;28;20779;-93
2022/07/19 09:34:59;;;;;;;3.60;3.40;;;29.60;74.70;;;;;;4972180;28;20661;-96
2022/07/19 09:37:30;;;;;;;4.70;3.37;;;29.70;77.30;;;;;;4972883;28;20439;-94
2022/07/19 09:40:05;;;;;;;4.37;3.97;;;29.90;75.30;;;;;;4968915;28;20448;-95
2022/07/19 09:42:41;;;;;;;4.10;3.27;;;29.80;75.40;;;;;;4979869;28;20538;-96
2022/07/19 09:45:11;;;;;;;4.40;3.37;;;29.90;74.80;;;;;;4974217;28;20474;-92
2022/07/19 09:47:42;;;;;;;3.60;3.20;;;30.00;74.20;;;;;;4976843;28;20458;-91
2022/07/19 09:50:16;;;;;;;3.17;2.97;;;30.30;75.40;;;;;;4997205;28;20440;-91
2022/07/19 09:52:43;;;;;;;3.10;2.90;;;30.40;76.10;;;;;;5004932;28;20442;-92
2022/07/19 09:55:10;;;;;;;3.40;3.20;;;30.20;76.60;;;;;;4976480;28;20444;-92
2022/07/19 09:57:46;;;;;;;3.37;2.97;;;30.30;71.60;;;;;;4972724;28;20710;-90
2022/07/19 10:00:14;;;;;;;3.83;3.23;;;30.60;73.10;;;;;;4978431;28;20446;-92
2022/07/19 10:02:47;;;;;;;3.47;3.20;;;30.50;69.40;;;;;;4957551;28;20472;-92
2022/07/19 10:05:13;;;;;;;4.70;3.27;;;30.40;70.10;;;;;;4996947;28;20585;-92
2022/07/19 10:07:46;;;;;;;3.47;3.17;;;30.50;69.70;;;;;;4971530;28;20444;-92
2022/07/19 10:10:17;;;;;;;3.27;2.97;;;31.00;71.30;;;;;;4972535;28;20435;-90
2022/07/19 10:12:47;;;;;;;3.20;3.00;;;31.00;75.20;;;;;;4986017;28;20455;-92
2022/07/19 10:15:21;;;;;;;3.50;3.20;;;31.10;70.20;;;;;;4983947;28;20942;-93
2022/07/19 10:17:50;;;;;;;4.23;3.43;;;31.20;70.80;;;;;;4978963;28;20490;-93
2022/07/19 10:20:21;;;;;;;3.23;3.03;;;31.00;71.30;;;;;;4975367;28;21958;-93
2022/07/19 10:22:46;;;;;;;7.97;3.77;;;31.30;69.60;;;;;;4998096;28;20452;-93
2022/07/19 10:25:13;;;;;;;3.93;3.50;;;30.80;74.10;;;;;;4965051;28;20522;-91
2022/07/19 10:27:46;;;;;;;3.87;3.53;;;31.20;71.10;;;;;;4970180;28;20189;-93
2022/07/19 10:30:22;;;;;;;3.93;3.53;;;31.40;65.80;;;;;;4980166;28;20447;-96
2022/07/19 10:33:20;;;;;;;3.83;3.40;;;31.10;71.40;;;;;;4964813;28;20481;-91
2022/07/19 10:35:51;;;;;;;3.67;3.13;;;31.50;75.40;;;;;;4973427;28;20436;-96
2022/07/19 13:08:32;;;;;;;3.50;3.20;;;35.20;60.90;;;;;;4955881;28;20477;-94
2022/07/19 13:11:00;;;;;;;4.27;3.50;;;35.30;62.20;;;;;;4945274;28;20177;-96
2022/07/19 13:13:26;;;;;;;3.73;3.33;;;35.60;60.30;;;;;;4965071;28;20495;-96
2022/07/19 13:15:52;;;;;;;3.60;2.93;;;35.50;63.30;;;;;;4964235;28;20232;-96
2022/07/19 13:18:21;;;;;;;4.70;3.43;;;35.80;59.80;;;;;;4967583;28;20201;-96
2022/07/19 13:20:47;;;;;;;3.67;3.23;;;36.00;63.00;;;;;;4964854;28;20540;-95
2022/07/19 13:23:12;;;;;;;4.13;3.27;;;36.10;63.60;;;;;;4977809;28;20197;-96
2022/07/19 13:25:57;;;;;;;5.43;3.50;;;36.60;59.80;;;;;;4962856;28;20213;-96
2022/07/19 13:28:25;;;;;;;3.50;3.20;;;36.40;65.10;;;;;;4977359;28;20220;-96
2022/07/19 13:46:55;;;;;;;4.88;3.30;;;37.00;63.10;;;;;;5022022;28;20254;-94
2022/07/19 13:49:52;;;;;;;3.70;3.40;;;37.00;60.60;;;;;;5031714;28;20675;-96
2022/07/19 13:52:17;;;;;;;3.47;3.17;;;37.00;60.30;;;;;;5025195;28;20179;-96
2022/07/19 13:55:02;;;;;;;4.60;4.00;;;36.60;59.90;;;;;;5015588;28;20474;-96
2022/07/19 13:57:30;;;;;;;4.83;3.70;;;36.80;59.80;;;;;;5013751;28;20168;-96
2022/07/19 13:59:55;;;;;;;3.65;3.35;;;;;;;;;;5008988;28;20542;-93
2022/07/19 14:02:21;;;;;;;6.33;3.27;;;;;;;;;;4996524;28;20634;-87
2022/07/19 14:04:47;;;;;;;3.97;3.30;;;;;;;;;;5029014;28;22368;-87
2022/07/19 14:07:13;;;;;;;3.65;3.35;;;;;;;;;;5010066;28;20823;-86
2022/07/19 14:09:39;;;;;;;4.30;2.90;;;;;;;;;;5001090;28;20187;-87
2022/07/19 14:12:05;;;;;;;3.97;3.63;;;;;;;;;;5017762;28;20187;-92
2022/07/19 14:14:31;;;;;;;3.58;3.10;;;;;;;;;;5034130;28;20180;-96
2022/07/19 14:16:57;;;;;;;4.15;3.20;;;;;;;;;;5023103;28;20660;-88
2022/07/19 14:19:26;;;;;;;4.03;3.60;;;;;;;;;;5018917;28;20203;-88
2022/07/19 14:22:02;;;;;;;3.33;3.03;;;;;;;;;;5009752;28;20242;-94
2022/07/19 14:24:34;;;;;;;5.95;3.38;;;;;;;;;;5011468;28;20245;-88
2022/07/19 14:27:22;;;;;;;3.47;3.22;;;;;;;;;;5006413;28;20188;-88
2022/07/19 14:29:57;;;;;;;4.63;3.50;;;;;;;;;;5007623;28;21140;-92
2022/07/19 14:32:39;;;;;;;4.90;3.92;;;;;;;;;;5020335;28;20191;-92
2022/07/19 14:35:06;;;;;;;4.35;3.60;;;;;;;;;;5007645;28;20188;-92
2022/07/19 14:37:34;;;;;;;5.45;3.92;;;;;;;;;;5006970;28;20653;-95
2022/07/19 14:40:01;;;;;;;4.03;3.60;;;;;;;;;;5006839;28;20759;-93
2022/07/19 14:42:29;;;;;;;3.97;3.60;;;;;;;;;;5013238;28;20227;-92
2022/07/19 14:45:03;;;;;;;3.92;3.63;;;;;;;;;;5016833;28;20196;-93
2022/07/19 14:47:30;;;;;;;4.78;3.58;;;;;;;;;;5014953;28;20195;-92
2022/07/19 14:49:55;;;;;;;5.38;3.83;;;46.90;54.70;;;;;;5018392;28;20216;-95
2022/07/19 14:52:28;;;;;;;4.70;3.13;;;;;;;;;;5017234;28;20285;-94
2022/07/19 14:54:55;;;;;;;3.53;3.20;;;;;;;;;;5029236;28;20181;-94
2022/07/19 14:57:22;;;;;;;3.55;3.10;;;;;;;;;;5017227;28;20187;-95
2022/07/19 14:59:49;;;;;;;3.10;2.80;;;;;;;;;;5030597;28;20234;-96
2022/07/19 15:02:16;;;;;;;3.97;3.10;;;;;;;;;;5030303;28;20574;-95
2022/07/19 15:04:43;;;;;;;3.70;3.10;;;;;;;;;;5013754;28;20376;-95
2022/07/19 15:07:10;;;;;;;3.83;3.05;;;;;;;;;;5029661;28;20215;-96
2022/07/19 16:30:26;;;;;;;3.58;2.92;;;;;;;;;;5013891;28;20225;-96
2022/07/19 16:32:53;;;;;;;2.78;2.53;;;;;;;;;;5023220;28;20195;-96
2022/07/19 16:35:20;;;;;;;4.80;2.78;;;;;;;;;;5037017;28;20195;-96
2022/07/19 16:37:47;;;;;;;3.38;3.08;;;;;;;;;;5015715;28;20196;-96
2022/07/19 16:40:14;;;;;;;3.08;2.58;;;;;;;;;;5026261;28;20219;-96
2022/07/19 16:42:41;;;;;;;5.03;2.85;;;;;;;;;;5028000;28;20410;-96
2022/07/19 16:45:11;;;;;;;4.50;2.78;;;;;;;;;;5024401;28;20925;-96
2022/07/19 16:47:38;;;;;;;4.25;2.58;;;;;;;;;;5032267;28;20184;-96
2022/07/19 16:50:06;;;;;;;4.93;2.90;;;;;;;;;;5020736;28;20181;-96
2022/07/19 16:52:33;;;;;;;4.53;2.58;;;;;;;;;;5020399;28;20238;-96
2022/07/19 16:55:00;;;;;;;2.97;2.78;;;;;;;;;;5027537;28;20189;-96
2022/07/19 16:57:35;;;;;;;2.95;2.65;;;;;;;;;;5020699;28;20228;-96
2022/07/19 17:00:05;;;;;;;2.95;2.75;;;;;;;;;;5019415;28;20193;-96
2022/07/19 17:02:32;;;;;;;4.13;2.80;;;;;;;;;;5010953;28;20184;-96
2022/07/19 17:04:59;;;;;;;4.32;3.50;;;;;;;;;;5015420;28;20404;-96
2022/07/19 17:07:25;;;;;;;5.68;3.17;;;48.70;52.50;;;;;;5011787;28;20200;-96
2022/07/19 17:09:51;;;;;;;3.03;2.80;;;;;;;;;;5027222;28;20180;-96
2022/07/19 17:12:17;;;;;;;5.10;3.08;;;47.30;53.90;;;;;;5027465;28;20198;-96
2022/07/19 17:14:43;;;;;;;3.30;3.00;;;46.60;53.80;;;;;;5022969;28;20200;-96
2022/07/19 17:17:09;;;;;;;5.32;3.55;;;;;;;;;;5048886;28;20247;-95
2022/07/19 17:19:34;;;;;;;3.55;3.10;;;46.30;53.70;;;;;;5000414;28;20172;-96
2022/07/19 17:22:00;;;;;;;4.15;3.22;;;46.10;55.90;;;;;;5007538;28;20656;-96
2022/07/19 17:24:26;;;;;;;4.60;3.13;;;46.30;55.60;;;;;;5021513;28;20180;-96
2022/07/19 17:26:54;;;;;;;3.53;3.33;;;47.00;55.80;;;;;;5018409;28;20279;-96
2022/07/19 17:29:20;;;;;;;3.50;3.20;;;47.20;55.10;;;;;;5032836;28;20184;-96
2022/07/19 17:31:48;;;;;;;3.58;3.25;;;45.30;55.50;;;;;;5007575;28;20188;-96
2022/07/19 17:34:24;;;;;;;;;;;;;;;;;;;;;
2022/07/19 17:36:50;;;;;;;3.72;3.53;;;45.00;55.90;;;;;;5021770;28;20312;-96
2022/07/19 17:39:19;;;;;;;3.88;3.65;;;44.40;55.60;;;;;;5017609;28;20216;-96
2022/07/19 18:33:55;;;;;;;6.03;5.50;;;33.40;62.80;;;;;;4966222;28;21061;-93
2022/07/19 18:36:20;;;;;;;7.60;5.50;;;32.40;63.90;;;;;;4948426;28;20466;-93
2022/07/19 18:38:50;;;;;;;6.13;5.60;;;31.80;65.20;;;;;;4967602;28;20453;-90
2022/07/19 18:41:16;;;;;;;6.93;6.10;;;31.60;67.70;;;;;;4956682;28;20189;-90
2022/07/19 18:43:41;;;;;;;6.70;6.10;;;31.30;67.10;;;;;;4964513;28;20453;-91
2022/07/19 18:46:07;;;;;;;6.17;5.47;;;30.90;67.20;;;;;;4971869;28;20198;-90
2022/07/19 18:48:33;;;;;;;7.00;6.30;;;30.50;67.80;;;;;;4954064;28;20190;-90
2022/07/19 18:51:02;;;;;;;6.87;6.27;;;30.30;67.40;;;;;;4951313;28;20193;-91
2022/07/19 18:53:29;;;;;;;7.87;7.10;;;30.30;69.10;;;;;;4971036;28;20237;-90
2022/07/19 18:56:00;;;;;;;6.50;5.90;;;29.90;68.60;;;;;;4955140;28;20522;-91
2022/07/19 18:58:43;;;;;;;7.03;6.33;;;29.90;68.50;;;;;;4963192;28;20443;-91
2022/07/19 19:01:48;;;;;;;6.77;6.27;;;29.60;69.10;;;;;;4952491;28;24304;-91
2022/07/19 19:04:34;;;;;;;7.50;6.27;;;29.50;69.10;;;;;;4966636;28;21236;-91
2022/07/19 19:07:01;;;;;;;7.70;6.20;;;29.40;70.40;;;;;;4973562;28;20443;-91
2022/07/19 19:09:42;;;;;;;10.77;6.97;;;29.30;70.20;;;;;;4968280;28;20559;-91
2022/07/19 19:12:09;;;;;;;10.47;6.37;;;29.20;70.80;;;;;;4977394;28;20445;-91
2022/07/19 19:14:35;;;;;;;7.33;6.33;;;29.10;70.80;;;;;;4977664;28;20476;-90
2022/07/19 19:17:01;;;;;;;6.30;5.77;;;29.00;71.90;;;;;;4942115;28;20559;-89
2022/07/19 19:19:53;;;;;;;7.57;6.60;;;29.00;72.70;;;;;;4959095;28;22203;-90
2022/07/19 19:22:34;;;;;;;7.80;7.10;;;28.80;73.10;;;;;;4975477;28;20440;-91
2022/07/19 19:25:26;;;;;;;8.33;6.70;;;28.60;74.70;;;;;;4966954;28;21156;-90
2022/07/19 19:27:53;;;;;;;7.47;6.80;;;28.60;76.70;;;;;;4978318;28;20483;-94
2022/07/19 19:30:19;;;;;;;7.53;5.90;;;28.40;75.30;;;;;;4967073;28;20452;-95
2022/07/19 19:33:17;;;;;;;7.70;7.00;;;28.20;75.40;;;;;;4961856;28;20539;-92
2022/07/19 19:36:05;;;;;;;8.37;6.80;;;28.00;75.40;;;;;;4961061;28;22173;-92
2022/07/19 19:38:31;;;;;;;7.10;6.40;;;27.80;75.90;;;;;;4959066;28;20484;-93
2022/07/19 19:40:56;;;;;;;7.40;6.70;;;27.80;75.70;;;;;;4961544;28;20477;-93
2022/07/19 19:44:05;;;;;;;;;;;;;;;;;;;;;
2022/07/19 21:43:03;;;;;;;7.67;6.97;;;25.00;87.90;;;;;;4992366;28;20468;-96
2022/07/19 21:45:59;;;;;;;7.40;6.80;;;25.10;87.50;;;;;;4977344;28;20460;-94
2022/07/19 21:48:43;;;;;;;7.87;7.17;;;24.90;86.40;;;;;;4980859;28;20507;-96
2022/07/19 21:51:19;;;;;;;9.07;8.03;;;25.10;89.10;;;;;;5015143;28;20436;-96
2022/07/19 21:54:13;;;;;;;14.30;7.97;;;25.10;87.90;;;;;;5016186;28;20482;-96
2022/07/19 21:56:39;;;;;;;8.67;7.20;;;25.00;87.00;;;;;;4973105;28;20571;-92
2022/07/19 21:59:05;;;;;;;7.17;6.47;;;24.90;86.70;;;;;;4983362;28;20448;-95
